Time,TemperatureF,DewpointF,PressureIn,WindDirection,WindDirectionDegrees,WindSpeedMPH,WindSpeedGustMPH,Humidity,HourlyPrecipIn,Conditions,Clouds,dailyrainin,SolarRadiationWatts/m^2,SoftwareType,DateUTC
2015-09-01 00:04:00,75.0,75.0,29.36,SE,132,6.2,8.0,0,0.00,,,0.00,2,TxWx,2015-09-01 05:04:00,
2015-09-01 00:09:00,75.9,76.0,29.37,SSE,155,6.8,8.7,0,0.00,,,0.00,2,TxWx,2015-09-01 05:09:00,
2015-09-01 00:14:00,77.0,77.0,29.37,SE,132,9.3,10.5,0,0.00,,,0.00,2,TxWx,2015-09-01 05:14:00,
2015-09-01 00:19:00,77.0,77.0,29.37,SE,132,8.0,8.0,0,0.00,,,0.00,2,TxWx,2015-09-01 05:19:00,
2015-09-01 00:25:00,76.6,77.0,29.37,ESE,110,4.3,6.2,0,0.00,,,0.00,3,TxWx,2015-09-01 05:25:00,
2015-09-01 00:30:00,76.4,76.0,29.37,ESE,110,4.3,5.6,0,0.00,,,0.00,3,TxWx,2015-09-01 05:30:00,
2015-09-01 00:35:00,76.0,76.0,29.37,SE,132,5.0,5.0,0,0.00,,,0.00,2,TxWx,2015-09-01 05:35:00,
2015-09-01 00:41:00,76.0,76.0,29.38,SE,132,3.7,6.2,0,0.00,,,0.00,2,TxWx,2015-09-01 05:41:00,
2015-09-01 00:46:00,76.1,76.0,29.38,SSE,155,4.3,7.4,0,0.00,,,0.00,2,TxWx,2015-09-01 05:46:00,
2015-09-01 00:51:00,76.3,76.0,29.38,SE,132,6.2,8.7,0,0.00,,,0.00,3,TxWx,2015-09-01 05:51:00,
2015-09-01 00:56:00,76.2,76.0,29.38,SE,132,5.0,8.0,0,0.00,,,0.00,3,TxWx,2015-09-01 05:56:00,
2015-09-01 01:02:00,75.9,76.0,29.38,South,177,8.7,11.8,0,0.00,,,0.00,3,TxWx,2015-09-01 06:02:00,
2015-09-01 01:07:00,75.8,76.0,29.38,SSW,200,11.8,12.4,0,0.00,,,0.00,3,TxWx,2015-09-01 06:07:00,
2015-09-01 01:12:00,75.8,76.0,29.38,South,177,11.1,12.4,0,0.00,,,0.00,3,TxWx,2015-09-01 06:12:00,
2015-09-01 01:15:00,92.2,92.0,29.34,South,177,23.5,29.1,0,0.00,,,0.00,687,TxWx,2015-09-01 06:15:00,
2015-09-01 01:16:00,92.7,93.0,29.34,South,177,21.0,26.0,0,0.00,,,0.00,690,TxWx,2015-09-01 06:16:00,
2015-09-01 01:17:00,92.5,92.0,29.33,South,177,22.9,28.5,0,0.00,,,0.00,688,TxWx,2015-09-01 06:17:00,
2015-09-01 01:18:00,75.8,76.0,29.38,South,177,8.7,9.3,0,0.00,,,0.00,2,TxWx,2015-09-01 06:18:00,
2015-09-01 01:19:00,92.3,92.0,29.33,South,177,26.0,31.6,0,0.00,,,0.00,692,TxWx,2015-09-01 06:19:00,
2015-09-01 01:20:00,92.1,92.0,29.33,South,177,22.3,27.8,0,0.00,,,0.00,694,TxWx,2015-09-01 06:20:00,
2015-09-01 01:21:00,92.1,92.0,29.33,South,177,25.4,28.5,0,0.00,,,0.00,692,TxWx,2015-09-01 06:21:00,
2015-09-01 01:22:00,92.1,92.0,29.33,SSW,200,27.2,30.3,0,0.00,,,0.00,691,TxWx,2015-09-01 06:22:00,
2015-09-01 01:23:00,75.8,76.0,29.38,South,177,6.8,12.4,0,0.00,,,0.00,2,TxWx,2015-09-01 06:23:00,
2015-09-01 01:24:00,92.0,92.0,29.33,South,177,21.0,27.2,0,0.00,,,0.00,695,TxWx,2015-09-01 06:24:00,
2015-09-01 01:25:00,92.4,92.0,29.33,SSW,200,22.9,32.8,0,0.00,,,0.00,699,TxWx,2015-09-01 06:25:00,
2015-09-01 01:27:00,92.7,93.0,29.33,South,177,17.3,26.6,0,0.00,,,0.00,698,TxWx,2015-09-01 06:27:00,
2015-09-01 01:28:00,76.1,76.0,29.37,SSE,155,10.5,14.2,0,0.00,,,0.00,2,TxWx,2015-09-01 06:28:00,
2015-09-01 01:29:00,92.5,92.0,29.33,SSW,200,22.3,28.5,0,0.00,,,0.00,699,TxWx,2015-09-01 06:29:00,
2015-09-01 01:30:00,92.6,93.0,29.33,SSW,200,22.3,29.1,0,0.00,,,0.00,701,TxWx,2015-09-01 06:30:00,
2015-09-01 01:31:00,92.8,93.0,29.33,SSW,200,25.4,26.6,0,0.00,,,0.00,704,TxWx,2015-09-01 06:31:00,
2015-09-01 01:32:00,93.0,93.0,29.33,South,177,20.4,24.8,0,0.00,,,0.00,699,TxWx,2015-09-01 06:32:00,
2015-09-01 01:33:00,76.1,76.0,29.38,South,177,11.8,12.4,0,0.00,,,0.00,2,TxWx,2015-09-01 06:33:00,
2015-09-01 01:34:00,93.5,94.0,29.33,SSW,200,15.5,24.1,0,0.00,,,0.00,706,TxWx,2015-09-01 06:34:00,
2015-09-01 01:35:00,93.5,93.0,29.33,SSW,200,22.3,22.9,0,0.00,,,0.00,707,TxWx,2015-09-01 06:35:00,
2015-09-01 01:36:00,93.4,93.0,29.33,SSW,200,17.3,24.1,0,0.00,,,0.00,709,TxWx,2015-09-01 06:36:00,
2015-09-01 01:37:00,93.6,94.0,29.33,SSW,200,11.1,22.3,0,0.00,,,0.00,706,TxWx,2015-09-01 06:37:00,
2015-09-01 01:38:00,93.8,94.0,29.33,SSW,200,21.0,27.8,0,0.00,,,0.00,706,TxWx,2015-09-01 06:38:00,
2015-09-01 01:39:00,76.0,76.0,29.38,South,177,16.7,18.6,0,0.00,,,0.00,3,TxWx,2015-09-01 06:39:00,
2015-09-01 01:42:00,93.7,94.0,29.33,South,177,26.6,30.3,0,0.00,,,0.00,709,TxWx,2015-09-01 06:42:00,
2015-09-01 01:44:00,76.1,76.0,29.37,South,177,9.9,14.2,0,0.00,,,0.00,2,TxWx,2015-09-01 06:44:00,
2015-09-01 01:45:00,93.4,93.0,29.33,South,177,29.1,33.4,0,0.00,,,0.00,712,TxWx,2015-09-01 06:45:00,
2015-09-01 01:47:00,93.2,93.0,29.33,South,177,24.8,31.6,0,0.00,,,0.00,711,TxWx,2015-09-01 06:47:00,
2015-09-01 01:48:00,93.2,93.0,29.32,South,177,29.1,31.6,0,0.00,,,0.00,711,TxWx,2015-09-01 06:48:00,
2015-09-01 01:49:00,76.3,76.0,29.37,SSW,200,13.6,18.6,0,0.00,,,0.00,3,TxWx,2015-09-01 06:49:00,
2015-09-01 01:50:00,93.5,94.0,29.33,South,177,15.5,24.1,0,0.00,,,0.00,710,TxWx,2015-09-01 06:50:00,
2015-09-01 01:52:00,93.8,94.0,29.32,South,177,20.4,25.4,0,0.00,,,0.00,710,TxWx,2015-09-01 06:52:00,
2015-09-01 01:55:00,76.6,77.0,29.37,SSW,200,14.9,16.7,0,0.00,,,0.00,3,TxWx,2015-09-01 06:55:00,
2015-09-01 01:56:00,93.6,94.0,29.32,SSW,200,22.9,27.8,0,0.00,,,0.00,715,TxWx,2015-09-01 06:56:00,
2015-09-01 01:57:00,93.6,94.0,29.33,SSW,200,22.3,26.0,0,0.00,,,0.00,716,TxWx,2015-09-01 06:57:00,
2015-09-01 01:58:00,94.1,94.0,29.33,SSW,200,14.2,21.7,0,0.00,,,0.00,714,TxWx,2015-09-01 06:58:00,
2015-09-01 01:59:00,94.4,94.0,29.33,SSW,200,16.1,19.8,0,0.00,,,0.00,717,TxWx,2015-09-01 06:59:00,
2015-09-01 02:00:00,76.5,76.0,29.38,SSW,200,19.2,19.8,0,0.00,,,0.00,2,TxWx,2015-09-01 07:00:00,
2015-09-01 02:01:00,94.0,94.0,29.32,SSW,200,22.3,27.8,0,0.00,,,0.00,720,TxWx,2015-09-01 07:01:00,
2015-09-01 02:02:00,93.8,94.0,29.32,SSW,200,19.2,28.5,0,0.00,,,0.00,721,TxWx,2015-09-01 07:02:00,
2015-09-01 02:03:00,93.7,94.0,29.32,South,177,21.7,25.4,0,0.00,,,0.00,715,TxWx,2015-09-01 07:03:00,
2015-09-01 02:04:00,94.2,94.0,29.32,South,177,28.5,30.3,0,0.00,,,0.00,721,TxWx,2015-09-01 07:04:00,
2015-09-01 02:05:00,94.1,94.0,29.32,South,177,28.5,30.3,0,0.00,,,0.00,720,TxWx,2015-09-01 07:05:00,
2015-09-01 02:06:00,76.5,76.0,29.37,SSW,200,13.0,17.9,0,0.00,,,0.00,2,TxWx,2015-09-01 07:06:00,
2015-09-01 02:07:00,93.8,94.0,29.32,SSW,200,29.1,30.3,0,0.00,,,0.00,720,TxWx,2015-09-01 07:07:00,
2015-09-01 02:08:00,93.8,94.0,29.32,SSW,200,27.8,29.7,0,0.00,,,0.00,718,TxWx,2015-09-01 07:08:00,
2015-09-01 02:09:00,93.4,93.0,29.32,South,177,21.7,25.4,0,0.00,,,0.00,711,TxWx,2015-09-01 07:09:00,
2015-09-01 02:10:00,93.6,94.0,29.32,South,177,21.7,24.8,0,0.00,,,0.00,716,TxWx,2015-09-01 07:10:00,
2015-09-01 02:11:00,76.6,77.0,29.37,SSW,200,17.3,22.3,0,0.00,,,0.00,3,TxWx,2015-09-01 07:11:00,
2015-09-01 02:12:00,93.9,94.0,29.32,South,177,20.4,32.8,0,0.00,,,0.00,717,TxWx,2015-09-01 07:12:00,
2015-09-01 02:15:00,93.9,94.0,29.32,South,177,26.0,29.7,0,0.00,,,0.00,716,TxWx,2015-09-01 07:15:00,
2015-09-01 02:16:00,76.4,76.0,29.37,SSW,200,18.6,19.8,0,0.00,,,0.00,2,TxWx,2015-09-01 07:16:00,
2015-09-01 02:17:00,94.3,94.0,29.32,South,177,21.0,26.6,0,0.00,,,0.00,719,TxWx,2015-09-01 07:17:00,
2015-09-01 02:18:00,94.4,94.0,29.31,South,177,17.9,22.9,0,0.00,,,0.00,722,TxWx,2015-09-01 07:18:00,
2015-09-01 02:19:00,94.5,95.0,29.31,SSW,200,28.5,30.9,0,0.00,,,0.00,720,TxWx,2015-09-01 07:19:00,
2015-09-01 02:20:00,94.8,95.0,29.31,SSW,200,26.0,27.2,0,0.00,,,0.00,715,TxWx,2015-09-01 07:20:00,
2015-09-01 02:21:00,76.3,76.0,29.37,SSW,200,17.3,20.4,0,0.00,,,0.00,3,TxWx,2015-09-01 07:21:00,
2015-09-01 02:22:00,94.4,94.0,29.32,SSW,200,26.0,26.0,0,0.00,,,0.00,720,TxWx,2015-09-01 07:22:00,
2015-09-01 02:23:00,94.3,94.0,29.31,SSW,200,24.8,24.8,0,0.00,,,0.00,719,TxWx,2015-09-01 07:23:00,
2015-09-01 02:24:00,94.4,94.0,29.31,South,177,20.4,22.3,0,0.00,,,0.00,717,TxWx,2015-09-01 07:24:00,
2015-09-01 02:25:00,94.7,95.0,29.31,South,177,22.3,26.6,0,0.00,,,0.00,719,TxWx,2015-09-01 07:25:00,
2015-09-01 02:26:00,95.0,95.0,29.31,SSW,200,22.9,22.9,0,0.00,,,0.00,718,TxWx,2015-09-01 07:26:00,
2015-09-01 02:27:00,76.3,76.0,29.37,SSW,200,14.9,18.6,0,0.00,,,0.00,2,TxWx,2015-09-01 07:27:00,
2015-09-01 02:28:00,94.9,95.0,29.31,SSW,200,13.6,26.0,0,0.00,,,0.00,655,TxWx,2015-09-01 07:28:00,
2015-09-01 02:29:00,95.0,95.0,29.31,SSW,200,23.5,30.3,0,0.00,,,0.00,721,TxWx,2015-09-01 07:29:00,
2015-09-01 02:30:00,94.3,94.0,29.31,SSW,200,19.2,22.9,0,0.00,,,0.00,723,TxWx,2015-09-01 07:30:00,
2015-09-01 02:31:00,94.5,95.0,29.31,SSW,200,16.7,20.4,0,0.00,,,0.00,718,TxWx,2015-09-01 07:31:00,
2015-09-01 02:32:00,76.2,76.0,29.38,South,177,17.3,20.4,0,0.00,,,0.00,2,TxWx,2015-09-01 07:32:00,
2015-09-01 02:33:00,94.3,94.0,29.31,SSW,200,29.7,30.9,0,0.00,,,0.00,716,TxWx,2015-09-01 07:33:00,
2015-09-01 02:36:00,94.1,94.0,29.31,SSW,200,19.2,26.0,0,0.00,,,0.00,714,TxWx,2015-09-01 07:36:00,
2015-09-01 02:37:00,76.3,76.0,29.37,SSW,200,11.8,14.9,0,0.00,,,0.00,2,TxWx,2015-09-01 07:37:00,
2015-09-01 02:38:00,94.9,95.0,29.31,SSW,200,15.5,24.1,0,0.00,,,0.00,710,TxWx,2015-09-01 07:38:00,
2015-09-01 02:39:00,94.5,95.0,29.31,SSW,200,22.3,26.6,0,0.00,,,0.00,711,TxWx,2015-09-01 07:39:00,
2015-09-01 02:40:00,94.2,94.0,29.31,South,177,21.0,26.6,0,0.00,,,0.00,713,TxWx,2015-09-01 07:40:00,
2015-09-01 02:42:00,95.4,95.0,29.31,SSW,200,24.8,24.8,0,0.00,,,0.00,711,TxWx,2015-09-01 07:42:00,
2015-09-01 02:43:00,76.1,76.0,29.37,SSW,200,16.7,16.7,0,0.00,,,0.00,2,TxWx,2015-09-01 07:43:00,
2015-09-01 02:47:00,94.5,94.0,29.31,SSW,200,17.9,27.8,0,0.00,,,0.00,715,TxWx,2015-09-01 07:47:00,
2015-09-01 02:48:00,76.2,76.0,29.38,South,177,20.4,20.4,0,0.00,,,0.00,2,TxWx,2015-09-01 07:48:00,
2015-09-01 02:50:00,94.8,95.0,29.31,South,177,20.4,25.4,0,0.00,,,0.00,711,TxWx,2015-09-01 07:50:00,
2015-09-01 02:51:00,95.3,95.0,29.31,SSW,200,16.1,27.8,0,0.00,,,0.00,710,TxWx,2015-09-01 07:51:00,
2015-09-01 02:52:00,94.9,95.0,29.31,SSW,200,18.6,25.4,0,0.00,,,0.00,706,TxWx,2015-09-01 07:52:00,
2015-09-01 02:53:00,76.1,76.0,29.37,South,177,14.2,17.3,0,0.00,,,0.00,3,TxWx,2015-09-01 07:53:00,
2015-09-01 02:56:00,95.1,95.0,29.30,SSE,155,22.9,24.1,0,0.00,,,0.00,704,TxWx,2015-09-01 07:56:00,
2015-09-01 02:59:00,76.1,76.0,29.37,South,177,12.4,20.4,0,0.00,,,0.00,3,TxWx,2015-09-01 07:59:00,
2015-09-01 03:04:00,75.9,76.0,29.37,South,177,11.8,16.7,0,0.00,,,0.00,3,TxWx,2015-09-01 08:04:00,
2015-09-01 03:09:00,75.8,76.0,29.37,South,177,16.7,19.8,0,0.00,,,0.00,2,TxWx,2015-09-01 08:09:00,
2015-09-01 03:12:00,95.7,96.0,29.31,SSW,200,24.1,28.5,0,0.00,,,0.00,693,TxWx,2015-09-01 08:12:00,
2015-09-01 03:14:00,75.5,76.0,29.37,SSW,200,14.2,14.9,0,0.00,,,0.00,3,TxWx,2015-09-01 08:14:00,
2015-09-01 03:18:00,95.8,96.0,29.31,SSW,200,19.2,26.0,0,0.00,,,0.00,693,TxWx,2015-09-01 08:18:00,
2015-09-01 03:19:00,95.7,96.0,29.31,SSW,200,17.9,21.0,0,0.00,,,0.00,689,TxWx,2015-09-01 08:19:00,
2015-09-01 03:20:00,75.4,75.0,29.37,SSW,200,12.4,15.5,0,0.00,,,0.00,2,TxWx,2015-09-01 08:20:00,
2015-09-01 03:25:00,75.3,75.0,29.37,South,177,14.2,15.5,0,0.00,,,0.00,2,TxWx,2015-09-01 08:25:00,
2015-09-01 03:28:00,95.8,96.0,29.30,South,177,25.4,25.4,0,0.00,,,0.00,710,TxWx,2015-09-01 08:28:00,
2015-09-01 03:30:00,75.5,75.0,29.37,SSW,200,11.8,16.7,0,0.00,,,0.00,2,TxWx,2015-09-01 08:30:00,
2015-09-01 03:36:00,75.7,76.0,29.37,SSE,155,13.6,19.2,0,0.00,,,0.00,3,TxWx,2015-09-01 08:36:00,
2015-09-01 03:38:00,96.7,97.0,29.31,SSW,200,14.9,24.1,0,0.00,,,0.00,712,TxWx,2015-09-01 08:38:00,
2015-09-01 03:40:00,96.2,96.0,29.30,South,177,19.2,24.8,0,0.00,,,0.00,712,TxWx,2015-09-01 08:40:00,
2015-09-01 03:41:00,75.6,76.0,29.37,SSW,200,13.0,16.1,0,0.00,,,0.00,2,TxWx,2015-09-01 08:41:00,
2015-09-01 03:42:00,96.3,96.0,29.30,SSW,200,19.8,24.8,0,0.00,,,0.00,713,TxWx,2015-09-01 08:42:00,
2015-09-01 03:46:00,75.6,76.0,29.37,SSW,200,14.2,20.4,0,0.00,,,0.00,2,TxWx,2015-09-01 08:46:00,
2015-09-01 03:49:00,95.6,96.0,29.30,SSE,155,17.3,28.5,0,0.00,,,0.00,675,TxWx,2015-09-01 08:49:00,
2015-09-01 03:50:00,96.2,96.0,29.30,SSW,200,18.6,24.1,0,0.00,,,0.00,675,TxWx,2015-09-01 08:50:00,
2015-09-01 03:51:00,75.6,76.0,29.38,SSW,200,13.0,14.2,0,0.00,,,0.00,3,TxWx,2015-09-01 08:51:00,
2015-09-01 03:54:00,96.0,96.0,29.30,South,177,24.1,26.6,0,0.00,,,0.00,671,TxWx,2015-09-01 08:54:00,
2015-09-01 03:55:00,95.8,96.0,29.29,South,177,27.8,31.6,0,0.00,,,0.00,669,TxWx,2015-09-01 08:55:00,
2015-09-01 03:57:00,75.5,76.0,29.38,South,177,11.8,15.5,0,0.00,,,0.00,2,TxWx,2015-09-01 08:57:00,
2015-09-01 04:02:00,75.5,76.0,29.38,SSW,200,9.3,17.3,0,0.00,,,0.00,2,TxWx,2015-09-01 09:02:00,
2015-09-01 04:07:00,96.1,96.0,29.30,SSW,200,21.7,25.4,0,0.00,,,0.00,649,TxWx,2015-09-01 09:07:00,
2015-09-01 04:08:00,75.3,75.0,29.38,SSW,200,12.4,14.9,0,0.00,,,0.00,3,TxWx,2015-09-01 09:08:00,
2015-09-01 04:09:00,96.0,96.0,29.30,SSW,200,19.2,22.9,0,0.00,,,0.00,644,TxWx,2015-09-01 09:09:00,
2015-09-01 04:13:00,75.2,75.0,29.38,SSW,200,9.9,13.6,0,0.00,,,0.00,3,TxWx,2015-09-01 09:13:00,
2015-09-01 04:16:00,96.8,97.0,29.30,SSW,200,16.7,16.7,0,0.00,,,0.00,631,TxWx,2015-09-01 09:16:00,
2015-09-01 04:17:00,96.6,97.0,29.29,SSW,200,9.3,20.4,0,0.00,,,0.00,609,TxWx,2015-09-01 09:17:00,
2015-09-01 04:19:00,96.5,97.0,29.29,SSW,200,23.5,29.1,0,0.00,,,0.00,630,TxWx,2015-09-01 09:19:00,
2015-09-01 04:24:00,75.1,75.0,29.38,South,177,6.8,13.6,0,0.00,,,0.00,2,TxWx,2015-09-01 09:24:00,
2015-09-01 04:25:00,97.1,97.0,29.30,SSW,200,19.2,22.9,0,0.00,,,0.00,618,TxWx,2015-09-01 09:25:00,
2015-09-01 04:29:00,75.2,75.0,29.38,SSW,200,13.0,17.3,0,0.00,,,0.00,3,TxWx,2015-09-01 09:29:00,
2015-09-01 04:34:00,75.3,75.0,29.38,SW,222,6.2,12.4,0,0.00,,,0.00,3,TxWx,2015-09-01 09:34:00,
2015-09-01 04:35:00,96.5,97.0,29.29,SSW,200,16.7,28.5,0,0.00,,,0.00,584,TxWx,2015-09-01 09:35:00,
2015-09-01 04:39:00,75.5,75.0,29.38,SSW,200,8.7,14.9,0,0.00,,,0.00,2,TxWx,2015-09-01 09:39:00,
2015-09-01 04:44:00,75.6,76.0,29.38,SSW,200,11.1,13.0,0,0.00,,,0.00,2,TxWx,2015-09-01 09:44:00,
2015-09-01 04:50:00,75.9,76.0,29.37,SSW,200,11.8,16.7,0,0.00,,,0.00,2,TxWx,2015-09-01 09:50:00,
2015-09-01 04:55:00,76.2,76.0,29.38,SW,222,13.0,13.0,0,0.00,,,0.00,2,TxWx,2015-09-01 09:55:00,
2015-09-01 05:01:00,76.3,76.0,29.38,SSW,200,16.1,16.1,0,0.00,,,0.00,2,TxWx,2015-09-01 10:01:00,
2015-09-01 05:06:00,76.4,76.0,29.38,SSW,200,11.8,12.4,0,0.00,,,0.00,2,TxWx,2015-09-01 10:06:00,
2015-09-01 05:12:00,76.4,76.0,29.37,SSW,200,18.6,22.3,0,0.00,,,0.00,2,TxWx,2015-09-01 10:12:00,
2015-09-01 05:17:00,76.5,77.0,29.38,SSW,200,17.3,22.3,0,0.00,,,0.00,3,TxWx,2015-09-01 10:17:00,
2015-09-01 05:22:00,76.5,77.0,29.38,SSW,200,14.9,16.1,0,0.00,,,0.00,2,TxWx,2015-09-01 10:22:00,
2015-09-01 05:28:00,76.4,76.0,29.37,SSW,200,10.5,18.6,0,0.00,,,0.00,3,TxWx,2015-09-01 10:28:00,
2015-09-01 05:33:00,76.5,77.0,29.37,SSW,200,12.4,15.5,0,0.00,,,0.00,3,TxWx,2015-09-01 10:33:00,
2015-09-01 05:38:00,76.3,76.0,29.37,SSW,200,14.9,14.9,0,0.00,,,0.00,2,TxWx,2015-09-01 10:38:00,
2015-09-01 05:43:00,76.3,76.0,29.37,SSW,200,19.2,19.2,0,0.00,,,0.00,2,TxWx,2015-09-01 10:43:00,
2015-09-01 05:49:00,76.4,76.0,29.37,SSW,200,12.4,14.9,0,0.00,,,0.00,2,TxWx,2015-09-01 10:49:00,
2015-09-01 05:54:00,76.3,76.0,29.37,South,177,13.6,17.9,0,0.00,,,0.00,2,TxWx,2015-09-01 10:54:00,
2015-09-01 05:59:00,76.2,76.0,29.37,SSW,200,13.0,14.9,0,0.00,,,0.00,3,TxWx,2015-09-01 10:59:00,
2015-09-01 06:04:00,75.8,76.0,29.37,South,177,11.1,13.0,0,0.00,,,0.00,2,TxWx,2015-09-01 11:04:00,
2015-09-01 06:10:00,75.4,75.0,29.37,South,177,13.0,14.2,0,0.00,,,0.00,2,TxWx,2015-09-01 11:10:00,
2015-09-01 06:15:00,75.1,75.0,29.37,SSW,200,12.4,12.4,0,0.00,,,0.00,2,TxWx,2015-09-01 11:15:00,
2015-09-01 06:20:00,75.0,75.0,29.37,SSW,200,8.0,13.0,0,0.00,,,0.00,2,TxWx,2015-09-01 11:20:00,
2015-09-01 06:25:00,74.8,75.0,29.37,SSW,200,15.5,16.1,0,0.00,,,0.00,3,TxWx,2015-09-01 11:25:00,
2015-09-01 06:31:00,74.8,75.0,29.37,SSW,200,11.8,13.6,0,0.00,,,0.00,3,TxWx,2015-09-01 11:31:00,
2015-09-01 06:36:00,74.8,75.0,29.37,SSW,200,9.3,9.9,0,0.00,,,0.00,3,TxWx,2015-09-01 11:36:00,
2015-09-01 06:41:00,74.9,75.0,29.37,South,177,13.6,14.2,0,0.00,,,0.00,3,TxWx,2015-09-01 11:41:00,
2015-09-01 06:46:00,74.9,75.0,29.37,SSW,200,12.4,16.1,0,0.00,,,0.00,3,TxWx,2015-09-01 11:46:00,
2015-09-01 06:52:00,74.8,75.0,29.37,SSE,155,9.9,12.4,0,0.00,,,0.00,6,TxWx,2015-09-01 11:52:00,
2015-09-01 06:57:00,74.8,75.0,29.38,SSW,200,13.0,14.9,0,0.00,,,0.00,16,TxWx,2015-09-01 11:57:00,
2015-09-01 07:02:00,74.7,75.0,29.38,SSW,200,13.0,16.1,0,0.00,,,0.00,20,TxWx,2015-09-01 12:02:00,
2015-09-01 07:07:00,74.5,75.0,29.38,SSW,200,7.4,12.4,0,0.00,,,0.00,24,TxWx,2015-09-01 12:07:00,
2015-09-01 07:13:00,74.5,74.0,29.38,SSW,200,11.1,14.9,0,0.00,,,0.00,34,TxWx,2015-09-01 12:13:00,
2015-09-01 07:18:00,74.6,75.0,29.38,SSW,200,13.0,15.5,0,0.00,,,0.00,47,TxWx,2015-09-01 12:18:00,
2015-09-01 07:23:00,74.6,75.0,29.38,SSW,200,14.9,15.5,0,0.00,,,0.00,63,TxWx,2015-09-01 12:23:00,
2015-09-01 07:29:00,74.7,75.0,29.38,SSW,200,12.4,15.5,0,0.00,,,0.00,86,TxWx,2015-09-01 12:29:00,
2015-09-01 07:34:00,75.0,75.0,29.39,SSW,200,10.5,14.9,0,0.00,,,0.00,105,TxWx,2015-09-01 12:34:00,
2015-09-01 07:39:00,75.3,75.0,29.39,SSW,200,12.4,14.2,0,0.00,,,0.00,128,TxWx,2015-09-01 12:39:00,
2015-09-01 07:44:00,75.5,76.0,29.38,SSW,200,14.2,16.7,0,0.00,,,0.00,151,TxWx,2015-09-01 12:44:00,
2015-09-01 07:50:00,75.8,76.0,29.38,SSW,200,10.5,16.7,0,0.00,,,0.00,170,TxWx,2015-09-01 12:50:00,
2015-09-01 07:54:00,94.8,95.0,29.28,South,177,19.8,21.0,0,0.00,,,0.00,154,TxWx,2015-09-01 12:54:00,
2015-09-01 07:55:00,76.1,76.0,29.38,SSW,200,13.0,14.9,0,0.00,,,0.00,192,TxWx,2015-09-01 12:55:00,
2015-09-01 07:57:00,94.6,95.0,29.28,South,177,17.9,18.6,0,0.00,,,0.00,102,TxWx,2015-09-01 12:57:00,
2015-09-01 07:58:00,94.5,95.0,29.28,SSW,200,17.3,17.3,0,0.00,,,0.00,90,TxWx,2015-09-01 12:58:00,
2015-09-01 08:00:00,76.5,76.0,29.38,South,177,15.5,19.8,0,0.00,,,0.00,215,TxWx,2015-09-01 13:00:00,
2015-09-01 08:01:00,94.3,94.0,29.28,South,177,14.9,18.6,0,0.00,,,0.00,54,TxWx,2015-09-01 13:01:00,
2015-09-01 08:05:00,76.9,77.0,29.38,South,177,19.2,21.0,0,0.00,,,0.00,234,TxWx,2015-09-01 13:05:00,
2015-09-01 08:07:00,93.7,94.0,29.28,South,177,16.7,17.9,0,0.00,,,0.00,55,TxWx,2015-09-01 13:07:00,
2015-09-01 08:11:00,77.2,77.0,29.38,SSW,200,16.1,17.9,0,0.00,,,0.00,232,TxWx,2015-09-01 13:11:00,
2015-09-01 08:14:00,93.2,93.0,29.28,South,177,16.7,18.6,0,0.00,,,0.00,74,TxWx,2015-09-01 13:14:00,
2015-09-01 08:15:00,93.1,93.0,29.28,South,177,11.8,17.3,0,0.00,,,0.00,75,TxWx,2015-09-01 13:15:00,
2015-09-01 08:16:00,77.3,77.0,29.38,SSW,200,15.5,18.6,0,0.00,,,0.00,248,TxWx,2015-09-01 13:16:00,
2015-09-01 08:18:00,92.8,93.0,29.28,South,177,13.0,17.3,0,0.00,,,0.00,64,TxWx,2015-09-01 13:18:00,
2015-09-01 08:19:00,92.8,93.0,29.28,South,177,15.5,16.7,0,0.00,,,0.00,64,TxWx,2015-09-01 13:19:00,
2015-09-01 08:20:00,92.7,93.0,29.28,South,177,14.2,16.7,0,0.00,,,0.00,61,TxWx,2015-09-01 13:20:00,
2015-09-01 08:21:00,77.5,77.0,29.38,SSW,200,15.5,22.9,0,0.00,,,0.00,199,TxWx,2015-09-01 13:21:00,
2015-09-01 08:24:00,92.6,93.0,29.28,South,177,17.3,21.0,0,0.00,,,0.00,32,TxWx,2015-09-01 13:24:00,
2015-09-01 08:26:00,77.5,77.0,29.38,South,177,16.7,19.2,0,0.00,,,0.00,152,TxWx,2015-09-01 13:26:00,
2015-09-01 08:32:00,77.3,77.0,29.37,SSW,200,22.3,26.0,0,0.00,,,0.00,131,TxWx,2015-09-01 13:32:00,
2015-09-01 08:35:00,91.8,92.0,29.28,South,177,13.0,16.7,0,0.00,,,0.00,12,TxWx,2015-09-01 13:35:00,
2015-09-01 08:37:00,77.1,77.0,29.37,SSW,200,18.6,20.4,0,0.00,,,0.00,112,TxWx,2015-09-01 13:37:00,
2015-09-01 08:39:00,91.5,92.0,29.28,South,177,9.9,14.9,0,0.00,,,0.00,10,TxWx,2015-09-01 13:39:00,
2015-09-01 08:40:00,91.4,91.0,29.28,South,177,12.4,14.2,0,0.00,,,0.00,10,TxWx,2015-09-01 13:40:00,
2015-09-01 08:42:00,77.1,77.0,29.37,SSW,200,16.7,19.8,0,0.00,,,0.00,142,TxWx,2015-09-01 13:42:00,
2015-09-01 08:43:00,91.1,91.0,29.28,South,177,11.1,14.9,0,0.00,,,0.00,9,TxWx,2015-09-01 13:43:00,
2015-09-01 08:48:00,77.2,77.0,29.37,South,177,18.6,20.4,0,0.00,,,0.00,139,TxWx,2015-09-01 13:48:00,
2015-09-01 08:53:00,77.3,77.0,29.37,SSW,200,19.2,21.0,0,0.00,,,0.00,89,TxWx,2015-09-01 13:53:00,
2015-09-01 08:58:00,77.2,77.0,29.38,SSW,200,22.3,22.3,0,0.00,,,0.00,86,TxWx,2015-09-01 13:58:00,
2015-09-01 09:03:00,77.2,77.0,29.38,SSW,200,14.9,18.6,0,0.00,,,0.00,86,TxWx,2015-09-01 14:03:00,
2015-09-01 09:09:00,77.2,77.0,29.38,SSW,200,11.1,16.1,0,0.00,,,0.00,93,TxWx,2015-09-01 14:09:00,
2015-09-01 09:14:00,77.3,77.0,29.38,SSW,200,13.0,16.1,0,0.00,,,0.00,194,TxWx,2015-09-01 14:14:00,
2015-09-01 09:19:00,77.3,77.0,29.37,South,177,9.9,20.4,0,0.00,,,0.00,141,TxWx,2015-09-01 14:19:00,
2015-09-01 09:24:00,77.3,77.0,29.37,SSE,155,15.5,25.4,0,0.00,,,0.00,94,TxWx,2015-09-01 14:24:00,
2015-09-01 09:30:00,77.2,77.0,29.38,SSW,200,13.0,17.9,0,0.00,,,0.00,99,TxWx,2015-09-01 14:30:00,
2015-09-01 09:35:00,77.4,77.0,29.37,South,177,12.4,14.2,0,0.00,,,0.00,129,TxWx,2015-09-01 14:35:00,
2015-09-01 09:40:00,77.8,78.0,29.37,SSW,200,17.3,24.8,0,0.00,,,0.00,160,TxWx,2015-09-01 14:40:00,
2015-09-01 09:46:00,78.5,78.0,29.37,SSW,200,16.1,19.2,0,0.00,,,0.00,201,TxWx,2015-09-01 14:46:00,
2015-09-01 09:51:00,79.0,79.0,29.37,South,177,16.1,20.4,0,0.00,,,0.00,321,TxWx,2015-09-01 14:51:00,
2015-09-01 09:56:00,79.9,80.0,29.37,South,177,22.3,24.1,0,0.00,,,0.00,410,TxWx,2015-09-01 14:56:00,
2015-09-01 10:02:00,80.7,81.0,29.37,SSW,200,21.0,27.2,0,0.00,,,0.00,418,TxWx,2015-09-01 15:02:00,
2015-09-01 10:07:00,81.6,82.0,29.37,SSE,155,16.1,24.1,0,0.00,,,0.00,473,TxWx,2015-09-01 15:07:00,
2015-09-01 10:12:00,82.5,82.0,29.37,SSW,200,16.7,19.8,0,0.00,,,0.00,473,TxWx,2015-09-01 15:12:00,
2015-09-01 10:17:00,83.1,83.0,29.37,SSW,200,19.2,22.3,0,0.00,,,0.00,493,TxWx,2015-09-01 15:17:00,
2015-09-01 10:23:00,83.6,84.0,29.37,SSW,200,19.8,22.3,0,0.00,,,0.00,508,TxWx,2015-09-01 15:23:00,
2015-09-01 10:28:00,84.2,84.0,29.37,South,177,24.1,25.4,0,0.00,,,0.00,516,TxWx,2015-09-01 15:28:00,
2015-09-01 10:33:00,84.6,85.0,29.37,SSW,200,15.5,19.8,0,0.00,,,0.00,518,TxWx,2015-09-01 15:33:00,
2015-09-01 10:38:00,84.8,85.0,29.37,SSW,200,25.4,25.4,0,0.00,,,0.00,534,TxWx,2015-09-01 15:38:00,
2015-09-01 10:44:00,85.3,85.0,29.36,SSW,200,16.7,21.7,0,0.00,,,0.00,546,TxWx,2015-09-01 15:44:00,
2015-09-01 10:49:00,85.3,85.0,29.36,SSW,200,23.5,24.8,0,0.00,,,0.00,556,TxWx,2015-09-01 15:49:00,
2015-09-01 10:54:00,85.2,85.0,29.36,South,177,22.3,27.2,0,0.00,,,0.00,567,TxWx,2015-09-01 15:54:00,
2015-09-01 11:00:00,85.7,86.0,29.37,SSW,200,24.8,26.6,0,0.00,,,0.00,574,TxWx,2015-09-01 16:00:00,
2015-09-01 11:05:00,85.9,86.0,29.36,South,177,23.5,30.3,0,0.00,,,0.00,585,TxWx,2015-09-01 16:05:00,
2015-09-01 11:10:00,86.6,87.0,29.36,SSW,200,18.6,25.4,0,0.00,,,0.00,590,TxWx,2015-09-01 16:10:00,
2015-09-01 11:15:00,87.3,87.0,29.36,SSW,200,20.4,24.8,0,0.00,,,0.00,593,TxWx,2015-09-01 16:15:00,
2015-09-01 11:21:00,87.7,88.0,29.36,South,177,16.7,18.6,0,0.00,,,0.00,609,TxWx,2015-09-01 16:21:00,
2015-09-01 11:26:00,87.9,88.0,29.36,South,177,19.8,24.8,0,0.00,,,0.00,614,TxWx,2015-09-01 16:26:00,
2015-09-01 11:31:00,88.5,89.0,29.36,South,177,19.8,24.1,0,0.00,,,0.00,624,TxWx,2015-09-01 16:31:00,
2015-09-01 11:36:00,89.1,89.0,29.35,South,177,20.4,24.1,0,0.00,,,0.00,632,TxWx,2015-09-01 16:36:00,
2015-09-01 11:42:00,89.8,90.0,29.35,South,177,21.0,21.0,0,0.00,,,0.00,640,TxWx,2015-09-01 16:42:00,
2015-09-01 11:47:00,90.3,90.0,29.35,South,177,22.9,22.9,0,0.00,,,0.00,648,TxWx,2015-09-01 16:47:00,
2015-09-01 11:52:00,90.1,90.0,29.35,SSW,200,24.1,30.9,0,0.00,,,0.00,654,TxWx,2015-09-01 16:52:00,
2015-09-01 11:58:00,90.5,91.0,29.35,South,177,22.9,27.2,0,0.00,,,0.00,661,TxWx,2015-09-01 16:58:00,
2015-09-01 12:03:00,91.6,92.0,29.35,South,177,21.7,27.8,0,0.00,,,0.00,670,TxWx,2015-09-01 17:03:00,
2015-09-01 12:08:00,91.6,92.0,29.34,South,177,27.8,28.5,0,0.00,,,0.00,676,TxWx,2015-09-01 17:08:00,
2015-09-01 12:14:00,91.7,92.0,29.34,SSW,200,17.3,24.8,0,0.00,,,0.00,685,TxWx,2015-09-01 17:14:00,
2015-09-01 12:19:00,92.2,92.0,29.34,South,177,29.1,35.9,0,0.00,,,0.00,687,TxWx,2015-09-01 17:19:00,
2015-09-01 12:24:00,92.7,93.0,29.33,SSW,200,22.9,29.7,0,0.00,,,0.00,694,TxWx,2015-09-01 17:24:00,
2015-09-01 12:30:00,92.2,92.0,29.33,South,177,26.0,29.1,0,0.00,,,0.00,697,TxWx,2015-09-01 17:30:00,
2015-09-01 12:35:00,92.7,93.0,29.33,SSW,200,23.5,26.0,0,0.00,,,0.00,700,TxWx,2015-09-01 17:35:00,
2015-09-01 12:44:00,94.0,94.0,29.33,SSW,200,13.0,22.3,0,0.00,,,0.00,704,TxWx,2015-09-01 17:44:00,
2015-09-01 12:49:00,93.7,94.0,29.33,SSW,200,17.9,25.4,0,0.00,,,0.00,710,TxWx,2015-09-01 17:49:00,
2015-09-01 12:54:00,93.2,93.0,29.33,SSW,200,24.8,33.4,0,0.00,,,0.00,711,TxWx,2015-09-01 17:54:00,
2015-09-01 13:00:00,93.9,94.0,29.31,South,177,24.8,31.6,0,0.00,,,0.00,713,TxWx,2015-09-01 18:00:00,
2015-09-01 13:05:00,94.3,94.0,29.32,SSW,200,16.1,17.3,0,0.00,,,0.00,718,TxWx,2015-09-01 18:05:00,
2015-09-01 13:15:00,93.7,94.0,29.32,SSW,200,21.0,26.0,0,0.00,,,0.00,715,TxWx,2015-09-01 18:15:00,
2015-09-01 13:20:00,93.8,94.0,29.32,South,177,20.4,29.7,0,0.00,,,0.00,716,TxWx,2015-09-01 18:20:00,
2015-09-01 13:26:00,94.6,95.0,29.31,SSW,200,16.7,28.5,0,0.00,,,0.00,715,TxWx,2015-09-01 18:26:00,
2015-09-01 13:32:00,95.1,95.0,29.31,SSW,200,17.3,21.0,0,0.00,,,0.00,715,TxWx,2015-09-01 18:32:00,
2015-09-01 13:37:00,94.4,94.0,29.31,SW,222,14.9,24.8,0,0.00,,,0.00,715,TxWx,2015-09-01 18:37:00,
2015-09-01 13:44:00,94.7,95.0,29.31,SSW,200,21.7,25.4,0,0.00,,,0.00,709,TxWx,2015-09-01 18:44:00,
2015-09-01 13:49:00,95.2,95.0,29.30,SSE,155,21.7,28.5,0,0.00,,,0.00,718,TxWx,2015-09-01 18:49:00,
2015-09-01 13:54:00,94.7,95.0,29.31,SSW,200,26.6,30.3,0,0.00,,,0.00,712,TxWx,2015-09-01 18:54:00,
2015-09-01 13:59:00,94.8,95.0,29.31,SSW,200,20.4,23.5,0,0.00,,,0.00,705,TxWx,2015-09-01 18:59:00,
2015-09-01 14:05:00,95.6,96.0,29.30,SSW,200,26.6,28.5,0,0.00,,,0.00,701,TxWx,2015-09-01 19:05:00,
2015-09-01 14:10:00,95.5,96.0,29.30,South,177,13.0,21.7,0,0.00,,,0.00,694,TxWx,2015-09-01 19:10:00,
2015-09-01 14:15:00,95.7,96.0,29.31,SSW,200,17.9,25.4,0,0.00,,,0.00,695,TxWx,2015-09-01 19:15:00,
2015-09-01 14:21:00,95.4,95.0,29.30,SW,222,13.6,22.3,0,0.00,,,0.00,692,TxWx,2015-09-01 19:21:00,
2015-09-01 14:26:00,95.8,96.0,29.31,SSW,200,23.5,23.5,0,0.00,,,0.00,688,TxWx,2015-09-01 19:26:00,
2015-09-01 14:31:00,96.2,96.0,29.31,SSW,200,23.5,29.1,0,0.00,,,0.00,695,TxWx,2015-09-01 19:31:00,
2015-09-01 14:37:00,96.0,96.0,29.30,SSW,200,28.5,28.5,0,0.00,,,0.00,699,TxWx,2015-09-01 19:37:00,
2015-09-01 14:42:00,95.8,96.0,29.31,SSW,200,19.8,23.5,0,0.00,,,0.00,713,TxWx,2015-09-01 19:42:00,
2015-09-01 14:47:00,96.0,96.0,29.31,SSW,200,17.9,24.8,0,0.00,,,0.00,713,TxWx,2015-09-01 19:47:00,
2015-09-01 14:52:00,96.0,96.0,29.30,SSW,200,24.1,24.1,0,0.00,,,0.00,691,TxWx,2015-09-01 19:52:00,
2015-09-01 14:58:00,96.4,96.0,29.30,SSE,155,16.1,19.2,0,0.00,,,0.00,676,TxWx,2015-09-01 19:58:00,
2015-09-01 15:03:00,96.2,96.0,29.30,South,177,16.7,24.8,0,0.00,,,0.00,661,TxWx,2015-09-01 20:03:00,
2015-09-01 15:08:00,96.5,97.0,29.30,SW,222,21.7,24.8,0,0.00,,,0.00,655,TxWx,2015-09-01 20:08:00,
2015-09-01 15:13:00,96.2,96.0,29.30,SSW,200,14.9,25.4,0,0.00,,,0.00,654,TxWx,2015-09-01 20:13:00,
2015-09-01 15:19:00,96.3,96.0,29.29,SW,222,10.5,22.3,0,0.00,,,0.00,626,TxWx,2015-09-01 20:19:00,
2015-09-01 15:24:00,96.7,97.0,29.29,South,177,25.4,29.1,0,0.00,,,0.00,603,TxWx,2015-09-01 20:24:00,
2015-09-01 15:30:00,96.6,97.0,29.30,SSW,200,13.0,16.7,0,0.00,,,0.00,619,TxWx,2015-09-01 20:30:00,
2015-09-01 15:35:00,96.8,97.0,29.29,SSW,200,16.7,25.4,0,0.00,,,0.00,612,TxWx,2015-09-01 20:35:00,
2015-09-01 15:40:00,96.5,97.0,29.29,SSW,200,22.3,25.4,0,0.00,,,0.00,562,TxWx,2015-09-01 20:40:00,
2015-09-01 15:45:00,96.2,96.0,29.29,SSW,200,19.8,22.3,0,0.00,,,0.00,602,TxWx,2015-09-01 20:45:00,
2015-09-01 15:51:00,96.7,97.0,29.29,SW,222,11.1,19.2,0,0.00,,,0.00,586,TxWx,2015-09-01 20:51:00,
2015-09-01 15:56:00,96.3,96.0,29.29,SSW,200,25.4,28.5,0,0.00,,,0.00,579,TxWx,2015-09-01 20:56:00,
2015-09-01 16:01:00,96.9,97.0,29.29,SSW,200,19.8,21.7,0,0.00,,,0.00,570,TxWx,2015-09-01 21:01:00,
2015-09-01 16:06:00,96.5,96.0,29.29,SSE,155,21.7,30.3,0,0.00,,,0.00,570,TxWx,2015-09-01 21:06:00,
2015-09-01 16:12:00,96.4,96.0,29.28,South,177,11.8,17.9,0,0.00,,,0.00,584,TxWx,2015-09-01 21:12:00,
2015-09-01 16:17:00,96.9,97.0,29.28,South,177,21.7,21.7,0,0.00,,,0.00,556,TxWx,2015-09-01 21:17:00,
2015-09-01 16:22:00,96.9,97.0,29.28,SSW,200,19.2,22.9,0,0.00,,,0.00,539,TxWx,2015-09-01 21:22:00,
2015-09-01 16:28:00,96.9,97.0,29.28,SSW,200,23.5,24.8,0,0.00,,,0.00,535,TxWx,2015-09-01 21:28:00,
2015-09-01 16:33:00,96.6,97.0,29.28,SW,222,8.7,22.3,0,0.00,,,0.00,517,TxWx,2015-09-01 21:33:00,
2015-09-01 16:38:00,97.4,97.0,29.28,SSW,200,18.6,19.2,0,0.00,,,0.00,512,TxWx,2015-09-01 21:38:00,
2015-09-01 16:44:00,96.9,97.0,29.28,SSW,200,18.6,21.7,0,0.00,,,0.00,482,TxWx,2015-09-01 21:44:00,
2015-09-01 16:49:00,96.6,97.0,29.28,SSW,200,11.8,18.6,0,0.00,,,0.00,488,TxWx,2015-09-01 21:49:00,
2015-09-01 16:54:00,96.9,97.0,29.28,SSW,200,14.2,14.2,0,0.00,,,0.00,474,TxWx,2015-09-01 21:54:00,
2015-09-01 16:59:00,96.8,97.0,29.28,SSW,200,14.9,19.8,0,0.00,,,0.00,458,TxWx,2015-09-01 21:59:00,
2015-09-01 17:05:00,96.5,96.0,29.28,SW,222,12.4,23.5,0,0.00,,,0.00,451,TxWx,2015-09-01 22:05:00,
2015-09-01 17:10:00,96.6,97.0,29.28,SSW,200,21.0,22.9,0,0.00,,,0.00,437,TxWx,2015-09-01 22:10:00,
2015-09-01 17:15:00,96.6,97.0,29.28,SSW,200,16.1,20.4,0,0.00,,,0.00,427,TxWx,2015-09-01 22:15:00,
2015-09-01 17:20:00,96.6,97.0,29.28,South,177,22.9,24.8,0,0.00,,,0.00,419,TxWx,2015-09-01 22:20:00,
2015-09-01 17:26:00,96.7,97.0,29.28,SSW,200,17.9,22.3,0,0.00,,,0.00,409,TxWx,2015-09-01 22:26:00,
2015-09-01 17:31:00,97.0,97.0,29.28,SSW,200,11.8,14.9,0,0.00,,,0.00,403,TxWx,2015-09-01 22:31:00,
2015-09-01 17:36:00,96.6,97.0,29.28,SSW,200,18.6,24.1,0,0.00,,,0.00,412,TxWx,2015-09-01 22:36:00,
2015-09-01 17:41:00,96.4,96.0,29.28,SSW,200,17.3,22.3,0,0.00,,,0.00,406,TxWx,2015-09-01 22:41:00,
2015-09-01 17:47:00,96.3,96.0,29.28,SSW,200,15.5,18.6,0,0.00,,,0.00,401,TxWx,2015-09-01 22:47:00,
2015-09-01 17:52:00,96.5,96.0,29.27,South,177,21.7,21.7,0,0.00,,,0.00,355,TxWx,2015-09-01 22:52:00,
2015-09-01 17:57:00,96.7,97.0,29.28,SW,222,7.4,17.9,0,0.00,,,0.00,351,TxWx,2015-09-01 22:57:00,
2015-09-01 18:03:00,96.8,97.0,29.28,SSW,200,10.5,17.3,0,0.00,,,0.00,117,TxWx,2015-09-01 23:03:00,
2015-09-01 18:08:00,96.3,96.0,29.28,South,177,14.2,17.9,0,0.00,,,0.00,154,TxWx,2015-09-01 23:08:00,
2015-09-01 18:13:00,95.7,96.0,29.28,SSW,200,12.4,16.7,0,0.00,,,0.00,247,TxWx,2015-09-01 23:13:00,
2015-09-01 18:19:00,96.0,96.0,29.28,South,177,16.1,16.1,0,0.00,,,0.00,265,TxWx,2015-09-01 23:19:00,
2015-09-01 18:24:00,96.2,96.0,29.28,SSW,200,10.5,16.7,0,0.00,,,0.00,289,TxWx,2015-09-01 23:24:00,
2015-09-01 18:29:00,96.4,96.0,29.28,SSW,200,14.2,14.2,0,0.00,,,0.00,275,TxWx,2015-09-01 23:29:00,
2015-09-01 18:34:00,96.2,96.0,29.28,SSW,200,18.6,22.3,0,0.00,,,0.00,258,TxWx,2015-09-01 23:34:00,
2015-09-01 18:40:00,95.9,96.0,29.28,South,177,16.7,20.4,0,0.00,,,0.00,159,TxWx,2015-09-01 23:40:00,
2015-09-01 18:45:00,95.6,96.0,29.28,South,177,12.4,17.9,0,0.00,,,0.00,188,TxWx,2015-09-01 23:45:00,
2015-09-01 18:50:00,95.3,95.0,29.28,SSW,200,13.0,16.1,0,0.00,,,0.00,194,TxWx,2015-09-01 23:50:00,
2015-09-01 18:55:00,95.1,95.0,29.28,South,177,15.5,17.3,0,0.00,,,0.00,176,TxWx,2015-09-01 23:55:00,
2015-09-01 19:01:00,94.8,95.0,29.28,SSW,200,18.6,19.8,0,0.00,,,0.00,157,TxWx,2015-09-02 00:01:00,
2015-09-01 19:06:00,94.4,94.0,29.28,South,177,16.1,19.8,0,0.00,,,0.00,50,TxWx,2015-09-02 00:06:00,
2015-09-01 19:12:00,93.8,94.0,29.28,South,177,12.4,17.9,0,0.00,,,0.00,49,TxWx,2015-09-02 00:12:00,
2015-09-01 19:17:00,93.4,93.0,29.28,South,177,9.9,17.9,0,0.00,,,0.00,36,TxWx,2015-09-02 00:17:00,
2015-09-01 19:22:00,93.0,93.0,29.28,South,177,14.2,17.3,0,0.00,,,0.00,65,TxWx,2015-09-02 00:22:00,
2015-09-01 19:28:00,92.6,93.0,29.28,South,177,15.5,17.9,0,0.00,,,0.00,57,TxWx,2015-09-02 00:28:00,
2015-09-01 19:33:00,92.4,92.0,29.28,South,177,16.1,16.1,0,0.00,,,0.00,23,TxWx,2015-09-02 00:33:00,
2015-09-01 19:38:00,92.0,92.0,29.28,South,177,14.2,19.2,0,0.00,,,0.00,14,TxWx,2015-09-02 00:38:00,
2015-09-01 19:44:00,91.7,92.0,29.28,SSE,155,14.2,16.1,0,0.00,,,0.00,11,TxWx,2015-09-02 00:44:00,
2015-09-01 19:50:00,91.0,91.0,29.28,South,177,13.6,15.5,0,0.00,,,0.00,8,TxWx,2015-09-02 00:50:00,
2015-09-01 19:55:00,90.6,91.0,29.28,South,177,13.6,14.9,0,0.00,,,0.00,7,TxWx,2015-09-02 00:55:00,
2015-09-01 20:00:00,90.2,90.0,29.29,SSE,155,10.5,15.5,0,0.00,,,0.00,5,TxWx,2015-09-02 01:00:00,
2015-09-01 20:06:00,89.9,90.0,29.29,South,177,14.2,16.1,0,0.00,,,0.00,4,TxWx,2015-09-02 01:06:00,
2015-09-01 20:11:00,89.7,90.0,29.29,South,177,9.3,13.0,0,0.00,,,0.00,3,TxWx,2015-09-02 01:11:00,
2015-09-01 20:16:00,89.3,89.0,29.29,South,177,11.8,15.5,0,0.00,,,0.00,3,TxWx,2015-09-02 01:16:00,
2015-09-01 20:22:00,89.0,89.0,29.30,SSE,155,11.1,13.0,0,0.00,,,0.00,3,TxWx,2015-09-02 01:22:00,
2015-09-01 20:27:00,88.6,89.0,29.30,SSE,155,9.3,13.0,0,0.00,,,0.00,3,TxWx,2015-09-02 01:27:00,
2015-09-01 20:32:00,88.1,88.0,29.30,SSE,155,9.3,11.1,0,0.00,,,0.00,3,TxWx,2015-09-02 01:32:00,
2015-09-01 20:37:00,87.9,88.0,29.31,SSE,155,11.1,15.5,0,0.00,,,0.00,3,TxWx,2015-09-02 01:37:00,
2015-09-01 20:43:00,87.6,88.0,29.31,SSE,155,13.6,16.7,0,0.00,,,0.00,2,TxWx,2015-09-02 01:43:00,
2015-09-01 20:48:00,87.3,87.0,29.31,SSE,155,13.6,16.1,0,0.00,,,0.00,2,TxWx,2015-09-02 01:48:00,